createdAt,value
2019-03-15T00:01:41.336Z,16.07
2019-03-15T00:04:10.589Z,13.33
2019-03-15T00:06:39.881Z,11.13
2019-03-15T00:09:09.448Z,13.13
2019-03-15T00:11:38.819Z,12.77
2019-03-15T00:14:08.127Z,13.50
2019-03-15T00:16:37.636Z,13.13
2019-03-15T00:19:06.939Z,12.17
2019-03-15T00:21:36.182Z,10.03
2019-03-15T00:24:05.499Z,15.37
2019-03-15T00:26:34.783Z,10.33
2019-03-15T00:29:04.186Z,10.07
2019-03-15T00:31:33.513Z,11.73
2019-03-15T00:34:03.079Z,9.63
2019-03-15T00:36:32.306Z,10.53
2019-03-15T00:39:01.640Z,9.67
2019-03-15T00:41:30.986Z,15.23
2019-03-15T00:44:00.273Z,10.40
2019-03-15T00:46:29.599Z,9.50
2019-03-15T00:48:58.924Z,8.00
2019-03-15T00:51:28.227Z,9.70
2019-03-15T00:53:57.480Z,12.13
2019-03-15T00:56:26.756Z,9.77
2019-03-15T00:58:56.010Z,11.43
2019-03-15T01:01:25.328Z,10.97
2019-03-15T01:03:54.892Z,11.20
2019-03-15T01:06:24.381Z,12.33
2019-03-15T01:08:53.683Z,11.93
2019-03-15T01:11:22.963Z,11.70
2019-03-15T01:13:52.647Z,12.60
2019-03-15T01:16:21.922Z,10.77
2019-03-15T01:18:51.557Z,12.40
2019-03-15T01:21:20.934Z,13.47
2019-03-15T01:23:50.250Z,15.67
2019-03-15T01:26:19.615Z,19.97
2019-03-15T01:28:49.154Z,11.27
2019-03-15T01:31:18.403Z,13.77
2019-03-15T01:33:47.703Z,10.13
2019-03-15T01:36:17.010Z,11.20
2019-03-15T01:38:46.260Z,10.03
2019-03-15T01:41:15.597Z,13.43
2019-03-15T01:43:44.989Z,12.07
2019-03-15T01:46:14.374Z,12.20
2019-03-15T01:48:43.701Z,12.20
2019-03-15T01:51:12.904Z,11.90
2019-03-15T01:53:42.257Z,9.93
2019-03-15T01:56:11.608Z,12.40
2019-03-15T01:58:40.871Z,13.80
2019-03-15T02:01:10.122Z,14.63
2019-03-15T02:03:39.648Z,10.63
2019-03-15T02:06:09.008Z,9.73
2019-03-15T02:08:38.300Z,14.20
2019-03-15T02:11:07.632Z,11.00
2019-03-15T02:13:36.976Z,14.63
2019-03-15T02:16:06.311Z,10.80
2019-03-15T02:18:35.688Z,11.67
2019-03-15T02:21:05.033Z,12.77
2019-03-15T02:23:34.286Z,14.10
2019-03-15T02:26:03.530Z,13.50
2019-03-15T02:28:32.849Z,14.73
2019-03-15T02:31:02.239Z,15.47
2019-03-15T02:33:33.408Z,14.37
2019-03-15T02:36:02.583Z,13.13
2019-03-15T02:38:31.915Z,14.60
2019-03-15T02:41:01.201Z,15.03
2019-03-15T02:43:30.482Z,15.63
2019-03-15T02:45:59.758Z,17.13
2019-03-15T02:48:29.055Z,15.43
2019-03-15T02:50:58.389Z,18.23
2019-03-15T02:53:27.699Z,18.90
2019-03-15T02:55:57.038Z,18.53
2019-03-15T02:58:27.883Z,18.67
2019-03-15T03:00:57.324Z,17.87
2019-03-15T03:03:26.556Z,20.33
2019-03-15T03:05:55.810Z,21.13
2019-03-15T03:08:25.099Z,22.20
2019-03-15T03:10:55.929Z,19.87
2019-03-15T03:13:25.550Z,21.93
2019-03-15T03:15:54.796Z,22.70
2019-03-15T03:18:24.124Z,23.27
2019-03-15T03:20:53.677Z,23.93
2019-03-15T03:23:23.038Z,23.07
2019-03-15T03:25:52.327Z,23.30
2019-03-15T03:28:21.688Z,21.70
2019-03-15T03:30:50.971Z,24.77
2019-03-15T03:33:20.226Z,21.77
2019-03-15T03:35:49.501Z,22.50
2019-03-15T03:38:18.761Z,25.17
2019-03-15T03:40:48.089Z,22.50
2019-03-15T03:43:17.495Z,28.47
2019-03-15T03:45:46.801Z,25.10
2019-03-15T03:48:16.095Z,27.70
2019-03-15T03:50:45.398Z,27.77
2019-03-15T03:53:14.662Z,26.03
2019-03-15T03:55:43.913Z,25.80
2019-03-15T03:58:13.279Z,25.23
2019-03-15T04:00:42.608Z,28.17
2019-03-15T04:03:11.875Z,24.97
2019-03-15T04:05:41.316Z,26.10
2019-03-15T04:08:10.753Z,24.67
2019-03-15T04:10:40.023Z,26.93
2019-03-15T04:13:09.309Z,24.77
2019-03-15T04:15:38.654Z,25.27
2019-03-15T04:18:07.916Z,28.77
2019-03-15T04:20:37.315Z,25.50
2019-03-15T04:23:06.681Z,27.50
2019-03-15T04:25:36.342Z,26.27
2019-03-15T04:28:05.607Z,23.87
2019-03-15T04:30:35.004Z,25.63
2019-03-15T04:33:04.297Z,25.83
2019-03-15T04:35:33.639Z,23.03
2019-03-15T04:38:02.934Z,30.93
2019-03-15T04:40:32.200Z,26.17
2019-03-15T04:43:01.459Z,28.13
2019-03-15T04:45:30.812Z,25.73
2019-03-15T04:48:00.079Z,31.97
2019-03-15T04:50:29.369Z,32.90
2019-03-15T04:52:58.731Z,30.07
2019-03-15T04:55:28.051Z,34.17
2019-03-15T04:57:57.444Z,31.37
2019-03-15T05:00:26.722Z,37.90
2019-03-15T05:02:55.958Z,35.87
2019-03-15T05:05:25.255Z,33.43
2019-03-15T05:07:54.540Z,36.70
2019-03-15T05:10:23.858Z,34.87
2019-03-15T05:12:53.185Z,51.03
2019-03-15T05:15:22.526Z,114.27
2019-03-15T05:17:51.812Z,49.87
2019-03-15T05:20:21.422Z,39.00
2019-03-15T05:22:50.743Z,35.43
2019-03-15T05:25:20.031Z,41.17
2019-03-15T05:27:49.532Z,36.77
2019-03-15T05:30:18.849Z,38.70
2019-03-15T05:32:48.244Z,33.17
2019-03-15T05:35:17.499Z,41.23
2019-03-15T05:37:46.906Z,42.93
2019-03-15T05:40:16.276Z,45.47
2019-03-15T05:42:45.539Z,39.03
2019-03-15T05:45:14.796Z,46.07
2019-03-15T05:47:44.154Z,37.07
2019-03-15T05:50:13.630Z,40.27
2019-03-15T05:52:42.930Z,41.03
2019-03-15T05:55:12.532Z,39.83
2019-03-15T05:57:41.776Z,42.57
2019-03-15T06:00:12.488Z,35.80
2019-03-15T06:02:41.823Z,35.77
2019-03-15T06:05:11.271Z,37.13
2019-03-15T06:07:40.585Z,31.70
2019-03-15T06:10:10.063Z,36.63
2019-03-15T06:12:39.310Z,34.50
2019-03-15T06:15:08.709Z,29.57
2019-03-15T06:17:38.036Z,35.30
2019-03-15T06:20:07.715Z,30.57
2019-03-15T06:22:37.056Z,31.03
2019-03-15T06:25:06.879Z,31.80
2019-03-15T06:27:36.210Z,34.00
2019-03-15T06:30:05.850Z,33.57
2019-03-15T06:32:35.076Z,32.27
2019-03-15T06:35:04.901Z,27.93
2019-03-15T06:37:34.202Z,29.60
2019-03-15T06:40:03.583Z,27.23
2019-03-15T06:42:32.931Z,25.57
2019-03-15T06:45:02.310Z,23.97
2019-03-15T06:47:31.865Z,22.47
2019-03-15T06:50:01.204Z,19.67
2019-03-15T06:52:30.516Z,23.33
2019-03-15T06:55:00.118Z,21.07
2019-03-15T06:57:29.538Z,17.63
2019-03-15T06:59:59.715Z,13.10
2019-03-15T07:02:29.069Z,12.70
2019-03-15T07:04:58.388Z,10.20
2019-03-15T07:07:27.730Z,15.73
2019-03-15T07:09:57.024Z,18.20
2019-03-15T07:12:26.270Z,11.57
2019-03-15T07:14:55.568Z,10.67
2019-03-15T07:17:25.083Z,10.13
2019-03-15T07:19:54.676Z,11.60
2019-03-15T07:22:24.092Z,12.40
2019-03-15T07:24:53.337Z,11.30
2019-03-15T07:27:22.670Z,12.10
2019-03-15T07:29:52.082Z,12.10
2019-03-15T07:32:21.704Z,12.03
2019-03-15T07:34:51.044Z,10.90
2019-03-15T07:37:21.481Z,9.67
2019-03-15T07:39:50.830Z,7.87
2019-03-15T07:42:20.110Z,8.63
2019-03-15T07:44:49.393Z,6.23
2019-03-15T07:47:18.634Z,6.37
2019-03-15T07:49:47.969Z,6.33
2019-03-15T07:52:17.315Z,5.83
2019-03-15T07:54:46.628Z,5.83
2019-03-15T07:57:16.136Z,7.03
2019-03-15T07:59:45.570Z,6.97
2019-03-15T08:02:14.808Z,5.93
2019-03-15T08:04:44.077Z,5.60
2019-03-15T08:07:13.339Z,4.53
2019-03-15T08:09:42.921Z,5.27
2019-03-15T08:12:12.265Z,4.33
2019-03-15T08:14:41.574Z,5.43
2019-03-15T08:17:10.856Z,4.00
2019-03-15T08:19:40.171Z,4.77
2019-03-15T08:22:09.426Z,4.80
2019-03-15T08:24:50.771Z,6.50
2019-03-15T08:27:09.701Z,5.60
2019-03-15T08:29:39.029Z,4.50
2019-03-15T08:32:08.383Z,4.80
2019-03-15T08:34:37.845Z,6.17
2019-03-15T08:37:07.151Z,3.97
2019-03-15T08:39:36.484Z,5.83
2019-03-15T08:42:05.812Z,4.77
2019-03-15T08:44:35.109Z,4.90
2019-03-15T08:47:04.434Z,4.70
2019-03-15T08:49:33.701Z,4.20
2019-03-15T08:52:04.143Z,4.30
2019-03-15T08:54:33.556Z,2.30
2019-03-15T08:57:02.858Z,2.30
2019-03-15T08:59:32.325Z,2.70
2019-03-15T09:02:01.652Z,3.17
2019-03-15T09:04:30.952Z,2.57
2019-03-15T09:07:00.527Z,2.60
2019-03-15T09:09:29.817Z,1.73
2019-03-15T09:11:59.179Z,2.47
2019-03-15T09:14:28.435Z,1.67
2019-03-15T09:16:57.705Z,2.53
2019-03-15T09:19:27.000Z,3.80
2019-03-15T09:21:56.340Z,2.57
2019-03-15T09:24:25.672Z,2.87
2019-03-15T09:26:55.182Z,2.47
2019-03-15T09:29:24.476Z,3.43
2019-03-15T09:32:05.247Z,2.83
2019-03-15T09:34:24.921Z,3.07
2019-03-15T09:36:54.429Z,2.93
2019-03-15T09:39:23.794Z,3.37
2019-03-15T09:41:53.075Z,4.50
2019-03-15T09:44:22.383Z,4.30
2019-03-15T09:46:51.719Z,3.30
2019-03-15T09:49:21.011Z,3.27
2019-03-15T09:51:50.345Z,5.40
2019-03-15T09:54:19.681Z,5.03
2019-03-15T09:56:48.996Z,5.13
2019-03-15T09:59:19.531Z,5.80
2019-03-15T10:01:48.800Z,3.13
2019-03-15T10:04:18.091Z,4.53
2019-03-15T10:06:47.406Z,3.00
2019-03-15T10:09:16.716Z,2.17
2019-03-15T10:11:46.020Z,3.83
2019-03-15T10:14:15.354Z,2.10
2019-03-15T10:16:44.652Z,1.63
2019-03-15T10:19:13.853Z,2.40
2019-03-15T10:21:43.145Z,3.20
2019-03-15T10:24:15.502Z,1.93
2019-03-15T10:26:43.417Z,2.27
2019-03-15T10:29:15.730Z,1.53
2019-03-15T10:31:43.758Z,2.27
2019-03-15T10:34:13.058Z,1.30
2019-03-15T10:36:42.384Z,2.10
2019-03-15T10:39:11.828Z,1.13
2019-03-15T10:41:41.076Z,1.23
2019-03-15T10:44:10.332Z,1.80
2019-03-15T10:46:40.504Z,1.97
2019-03-15T10:49:09.936Z,4.87
2019-03-15T10:51:39.258Z,1.80
2019-03-15T10:54:08.596Z,2.07
2019-03-15T10:56:37.903Z,1.20
2019-03-15T10:59:07.191Z,1.37
2019-03-15T11:01:36.486Z,1.03
2019-03-15T11:04:05.760Z,1.67
2019-03-15T11:06:35.066Z,1.93
2019-03-15T11:09:04.777Z,4.20
2019-03-15T11:11:34.112Z,3.07
2019-03-15T11:14:03.378Z,1.57
2019-03-15T11:16:32.644Z,1.93
2019-03-15T11:19:01.990Z,7.77
2019-03-15T11:21:31.303Z,2.93
2019-03-15T11:24:00.629Z,1.83
2019-03-15T11:26:29.949Z,2.23
2019-03-15T11:28:59.227Z,4.40
2019-03-15T11:31:28.541Z,2.80
2019-03-15T11:33:57.830Z,3.60
2019-03-15T11:36:27.062Z,2.67
2019-03-15T11:38:56.389Z,1.70
2019-03-15T11:41:25.944Z,7.63
2019-03-15T11:43:55.257Z,4.53
2019-03-15T11:46:24.520Z,3.33
2019-03-15T11:48:53.798Z,2.93
2019-03-15T11:51:23.051Z,3.90
2019-03-15T11:53:52.358Z,5.50
2019-03-15T11:56:26.990Z,4.47
2019-03-15T11:58:52.712Z,4.10
2019-03-15T12:01:22.076Z,5.30
2019-03-15T12:03:53.237Z,4.73
2019-03-15T12:06:22.483Z,3.33
2019-03-15T12:08:51.813Z,6.33
2019-03-15T12:11:21.064Z,4.73
2019-03-15T12:13:50.343Z,5.73
2019-03-15T12:16:19.602Z,6.60
2019-03-15T12:18:48.909Z,3.67
2019-03-15T12:21:18.756Z,2.70
2019-03-15T12:23:48.130Z,2.70
2019-03-15T12:26:17.398Z,4.47
2019-03-15T12:28:46.714Z,4.37
2019-03-15T12:31:16.038Z,1.60
2019-03-15T12:33:45.345Z,1.67
2019-03-15T12:36:14.660Z,1.83
2019-03-15T12:38:43.927Z,2.43
2019-03-15T12:41:13.242Z,4.70
2019-03-15T12:43:42.595Z,2.80
2019-03-15T12:46:11.866Z,2.87
2019-03-15T12:48:41.231Z,4.27
2019-03-15T12:51:10.775Z,2.17
2019-03-15T12:53:40.058Z,3.10
2019-03-15T12:56:11.031Z,2.10
2019-03-15T12:58:40.645Z,3.37
2019-03-15T13:01:09.916Z,7.20
2019-03-15T13:03:39.153Z,6.20
2019-03-15T13:06:08.644Z,2.23
2019-03-15T13:08:38.051Z,5.50
2019-03-15T13:11:07.431Z,6.13
2019-03-15T13:13:36.743Z,4.00
2019-03-15T13:16:06.149Z,1.60
2019-03-15T13:18:35.433Z,2.93
2019-03-15T13:21:04.749Z,3.93
2019-03-15T13:23:34.121Z,5.20
2019-03-15T13:26:03.423Z,4.67
2019-03-15T13:28:32.769Z,4.93
2019-03-15T13:31:02.104Z,5.07
2019-03-15T13:33:31.426Z,6.17
2019-03-15T13:36:00.839Z,5.53
2019-03-15T13:38:30.099Z,4.27
2019-03-15T13:40:59.362Z,5.30
2019-03-15T13:43:28.617Z,6.40
2019-03-15T13:45:57.974Z,6.30
2019-03-15T13:48:27.319Z,7.07
2019-03-15T13:50:56.604Z,2.37
2019-03-15T13:53:25.834Z,6.47
2019-03-15T13:55:55.151Z,3.27
2019-03-15T13:58:24.524Z,6.37
2019-03-15T14:00:53.909Z,8.13
2019-03-15T14:03:23.208Z,2.87
2019-03-15T14:05:52.553Z,6.00
2019-03-15T14:08:21.951Z,14.53
2019-03-15T14:10:51.203Z,2.47
2019-03-15T14:13:20.503Z,7.10
2019-03-15T14:15:49.741Z,7.67
2019-03-15T14:18:21.592Z,3.97
2019-03-15T14:20:50.189Z,2.83
2019-03-15T14:23:19.492Z,9.20
2019-03-15T14:25:49.061Z,12.27
2019-03-15T14:28:18.301Z,5.77
2019-03-15T14:30:47.593Z,11.67
2019-03-15T14:33:16.860Z,11.90
2019-03-15T14:35:46.191Z,11.47
2019-03-15T14:38:15.776Z,12.57
2019-03-15T14:40:45.241Z,6.43
2019-03-15T14:43:14.817Z,5.70
2019-03-15T14:45:44.131Z,8.10
2019-03-15T14:48:13.701Z,8.73
2019-03-15T14:50:42.950Z,6.93
2019-03-15T14:53:12.208Z,5.20
2019-03-15T14:55:41.517Z,6.17
2019-03-15T14:58:10.849Z,9.17
2019-03-15T15:00:40.183Z,7.10
2019-03-15T15:03:09.513Z,8.33
2019-03-15T15:05:38.792Z,7.47
2019-03-15T15:08:08.123Z,10.43
2019-03-15T15:10:37.582Z,5.80
2019-03-15T15:13:06.904Z,8.63
2019-03-15T15:15:36.213Z,8.33
2019-03-15T15:18:05.511Z,10.47
2019-03-15T15:20:34.815Z,10.57
2019-03-15T15:23:06.691Z,10.97
2019-03-15T15:25:35.944Z,8.57
2019-03-15T15:28:05.279Z,10.60
2019-03-15T15:30:34.576Z,16.30
2019-03-15T15:33:03.881Z,15.30
2019-03-15T15:35:33.226Z,14.17
2019-03-15T15:38:02.508Z,23.00
2019-03-15T15:40:31.726Z,21.10
2019-03-15T15:43:01.014Z,26.23
2019-03-15T15:45:30.317Z,20.60
2019-03-15T15:47:59.662Z,21.83
2019-03-15T15:50:28.999Z,25.43
2019-03-15T15:52:58.379Z,25.17
2019-03-15T15:55:27.682Z,17.37
2019-03-15T15:57:56.915Z,20.17
2019-03-15T16:00:26.240Z,19.87
2019-03-15T16:02:55.565Z,13.30
2019-03-15T16:05:24.833Z,19.83
2019-03-15T16:07:56.457Z,23.30
2019-03-15T16:10:25.248Z,17.67
2019-03-15T16:12:54.708Z,10.20
2019-03-15T16:15:24.003Z,13.37
2019-03-15T16:17:53.326Z,9.10
2019-03-15T16:20:22.659Z,10.37
2019-03-15T16:22:51.899Z,10.90
2019-03-15T16:25:21.197Z,13.50
2019-03-15T16:27:50.520Z,11.80
2019-03-15T16:30:19.911Z,6.93
2019-03-15T16:32:49.383Z,11.97
2019-03-15T16:35:18.763Z,3.97
2019-03-15T16:37:48.133Z,4.57
2019-03-15T16:40:17.503Z,3.03
2019-03-15T16:42:46.964Z,4.37
2019-03-15T16:45:16.546Z,4.80
2019-03-15T16:47:45.863Z,2.27
2019-03-15T16:50:15.380Z,3.00
2019-03-15T16:52:44.995Z,4.47
2019-03-15T16:55:14.275Z,5.77
2019-03-15T16:57:43.500Z,9.90
2019-03-15T17:00:13.233Z,5.13
2019-03-15T17:02:42.509Z,6.50
2019-03-15T17:05:11.902Z,5.87
2019-03-15T17:07:41.261Z,2.07
2019-03-15T17:10:10.895Z,3.87
2019-03-15T17:12:40.210Z,3.80
2019-03-15T17:15:10.917Z,4.80
2019-03-15T17:17:40.242Z,13.73
2019-03-15T17:20:10.276Z,4.83
2019-03-15T17:22:39.511Z,4.03
2019-03-15T17:25:09.506Z,5.70
2019-03-15T17:27:38.830Z,8.47
2019-03-15T17:30:10.406Z,6.07
2019-03-15T17:32:40.024Z,4.57
2019-03-15T17:35:11.020Z,5.83
2019-03-15T17:37:40.308Z,9.97
2019-03-15T17:40:11.505Z,14.13
2019-03-15T17:42:40.884Z,35.30
2019-03-15T17:45:10.377Z,8.17
2019-03-15T17:47:39.723Z,11.07
2019-03-15T17:50:12.217Z,5.60
2019-03-15T17:52:41.496Z,11.97
2019-03-15T17:55:11.003Z,6.80
2019-03-15T17:57:40.515Z,6.87
2019-03-15T18:00:16.135Z,7.23
2019-03-15T18:02:45.609Z,13.33
2019-03-15T18:05:15.316Z,11.87
2019-03-15T18:07:44.768Z,8.10
2019-03-15T18:10:14.313Z,8.00
2019-03-15T18:12:43.663Z,5.20
2019-03-15T18:15:13.368Z,8.23
2019-03-15T18:17:42.839Z,8.13
2019-03-15T18:20:12.202Z,10.23
2019-03-15T18:22:41.525Z,6.77
2019-03-15T18:25:12.538Z,6.13
2019-03-15T18:27:41.845Z,8.13
2019-03-15T18:30:11.816Z,7.50
2019-03-15T18:32:41.129Z,7.80
2019-03-15T18:35:11.334Z,6.77
2019-03-15T18:37:40.635Z,18.60
2019-03-15T18:40:11.342Z,10.43
2019-03-15T18:42:40.750Z,6.17
2019-03-15T18:45:11.543Z,9.50
2019-03-15T18:47:40.884Z,7.13
2019-03-15T18:50:13.379Z,11.77
2019-03-15T18:52:42.753Z,5.40
2019-03-15T18:55:12.176Z,6.10
2019-03-15T18:57:41.517Z,10.03
2019-03-15T19:00:13.718Z,17.97
2019-03-15T19:02:43.032Z,16.93
2019-03-15T19:05:12.637Z,19.13
2019-03-15T19:07:41.910Z,11.17
2019-03-15T19:10:12.024Z,4.40
2019-03-15T19:12:41.356Z,5.57
2019-03-15T19:15:11.874Z,3.63
2019-03-15T19:17:41.156Z,5.77
2019-03-15T19:20:10.430Z,3.53
2019-03-15T19:22:39.702Z,4.90
2019-03-15T19:25:09.264Z,3.60
2019-03-15T19:27:38.621Z,5.90
2019-03-15T19:30:08.975Z,8.63
2019-03-15T19:32:38.334Z,7.93
2019-03-15T19:35:08.228Z,8.83
2019-03-15T19:37:37.807Z,6.33
2019-03-15T19:40:08.240Z,10.33
2019-03-15T19:42:37.563Z,6.10
2019-03-15T19:45:07.792Z,5.97
2019-03-15T19:47:37.144Z,7.47
2019-03-15T19:50:07.914Z,6.37
2019-03-15T19:52:37.196Z,9.50
2019-03-15T19:55:07.276Z,8.23
2019-03-15T19:57:36.620Z,13.57
2019-03-15T20:00:08.514Z,5.50
2019-03-15T20:02:37.660Z,13.17
2019-03-15T20:05:06.989Z,7.43
2019-03-15T20:07:36.690Z,13.13
2019-03-15T20:10:06.479Z,3.90
2019-03-15T20:12:35.779Z,3.60
2019-03-15T20:15:05.446Z,2.60
2019-03-15T20:17:34.775Z,3.03
2019-03-15T20:20:04.440Z,2.03
2019-03-15T20:22:33.759Z,2.37
2019-03-15T20:25:03.034Z,2.83
2019-03-15T20:27:32.342Z,0.80
2019-03-15T20:30:01.722Z,1.53
2019-03-15T20:32:30.999Z,1.57
2019-03-15T20:35:00.341Z,1.80
2019-03-15T20:37:29.719Z,1.07
2019-03-15T20:39:59.050Z,1.60
2019-03-15T20:42:28.372Z,1.83
2019-03-15T20:44:57.684Z,1.17
2019-03-15T20:47:26.961Z,0.77
2019-03-15T20:49:56.247Z,1.43
2019-03-15T20:52:25.558Z,2.40
2019-03-15T20:54:54.856Z,1.60
2019-03-15T20:57:24.238Z,1.03
2019-03-15T20:59:53.526Z,1.00
2019-03-15T21:02:22.844Z,1.20
2019-03-15T21:04:52.244Z,1.97
2019-03-15T21:07:21.519Z,1.20
2019-03-15T21:09:50.776Z,1.40
2019-03-15T21:12:20.063Z,0.97
2019-03-15T21:14:49.381Z,1.10
2019-03-15T21:17:18.715Z,1.50
2019-03-15T21:19:48.149Z,1.73
2019-03-15T21:22:17.490Z,1.10
2019-03-15T21:24:46.769Z,0.80
2019-03-15T21:27:16.061Z,1.37
2019-03-15T21:29:45.475Z,1.10
2019-03-15T21:32:14.910Z,0.93
2019-03-15T21:34:44.536Z,1.63
2019-03-15T21:37:13.946Z,1.20
2019-03-15T21:39:43.488Z,1.60
2019-03-15T21:42:12.785Z,3.00
2019-03-15T21:44:42.077Z,3.43
2019-03-15T21:47:11.327Z,1.53
2019-03-15T21:49:40.610Z,1.20
2019-03-15T21:52:10.266Z,1.17
2019-03-15T21:54:39.523Z,2.30
2019-03-15T21:57:08.786Z,1.83
2019-03-15T21:59:39.220Z,5.17
2019-03-15T22:02:08.514Z,2.63
2019-03-15T22:04:37.786Z,2.33
2019-03-15T22:07:07.095Z,2.40
2019-03-15T22:09:36.814Z,3.77
2019-03-15T22:12:06.265Z,2.13
2019-03-15T22:14:35.983Z,2.77
2019-03-15T22:17:05.282Z,3.80
2019-03-15T22:19:34.671Z,3.60
2019-03-15T22:22:03.897Z,2.47
2019-03-15T22:24:33.237Z,4.27
2019-03-15T22:27:02.844Z,2.57
2019-03-15T22:29:32.412Z,2.70
2019-03-15T22:32:01.912Z,2.73
2019-03-15T22:34:31.279Z,3.33
2019-03-15T22:37:00.508Z,4.27
2019-03-15T22:39:29.830Z,3.13
2019-03-15T22:41:59.170Z,3.20
2019-03-15T22:44:28.501Z,2.33
2019-03-15T22:46:57.789Z,3.50
2019-03-15T22:49:27.134Z,1.67
2019-03-15T22:51:56.501Z,2.67
2019-03-15T22:54:25.828Z,1.73
2019-03-15T22:56:55.100Z,2.13
2019-03-15T22:59:24.359Z,2.00
2019-03-15T23:01:53.637Z,2.77
2019-03-15T23:04:22.967Z,3.77
2019-03-15T23:06:52.294Z,1.93
2019-03-15T23:09:21.558Z,1.40
2019-03-15T23:11:50.816Z,2.70
2019-03-15T23:14:20.223Z,1.40
2019-03-15T23:16:49.548Z,1.80
2019-03-15T23:19:18.833Z,1.67
2019-03-15T23:21:48.156Z,1.10
2019-03-15T23:24:18.636Z,1.80
2019-03-15T23:26:47.929Z,1.70
2019-03-15T23:29:17.229Z,1.97
2019-03-15T23:31:46.565Z,0.93
2019-03-15T23:34:15.994Z,1.83
2019-03-15T23:36:45.317Z,1.50
2019-03-15T23:39:14.849Z,1.83
2019-03-15T23:41:44.184Z,1.53
2019-03-15T23:44:13.530Z,1.97
2019-03-15T23:46:42.846Z,1.40
2019-03-15T23:49:12.235Z,2.00
2019-03-15T23:51:41.573Z,2.27
2019-03-15T23:54:10.885Z,2.03
2019-03-15T23:56:40.184Z,2.13
2019-03-15T23:59:09.436Z,2.63
